Time;durP1;ratioP1;P1;durP2;ratioP2;P2;SDS_P1;SDS_P2;PMS_P1;PMS_P2;Temp;Humidity;BMP_temperature;BMP_pressure;BME280_temperature;BME280_humidity;BME280_pressure;Samples;Min_cycle;Max_cycle;Signal;HPM_P1;HPM_P2
2023/04/26 00:01:54;;;;;;;3.83;1.70;;;3.80;61.40;;;;;;5033749;28;20474;-54
2023/04/26 00:04:20;;;;;;;10.73;2.33;;;3.70;60.20;;;;;;5030219;28;20464;-53
2023/04/26 00:06:49;;;;;;;3.70;1.83;;;3.70;52.70;;;;;;5033457;28;20458;-53
2023/04/26 00:09:17;;;;;;;5.70;1.73;;;3.60;51.80;;;;;;5031225;28;20501;-52
2023/04/26 00:11:44;;;;;;;16.33;2.20;;;3.60;50.80;;;;;;5032002;28;20467;-53
2023/04/26 00:14:11;;;;;;;6.20;2.33;;;3.60;43.20;;;;;;5040035;28;20488;-53
2023/04/26 00:16:37;;;;;;;7.13;2.67;;;3.60;48.90;;;;;;5049371;28;20497;-54
2023/04/26 00:19:04;;;;;;;5.90;2.07;;;3.60;46.70;;;;;;5050741;28;20514;-53
2023/04/26 00:21:31;;;;;;;6.93;1.87;;;3.60;46.70;;;;;;5046727;28;20457;-53
2023/04/26 00:23:59;;;;;;;7.03;2.07;;;3.60;48.50;;;;;;5045543;28;20547;-53
2023/04/26 00:26:25;;;;;;;10.30;2.50;;;3.60;48.90;;;;;;5033313;28;20542;-53
2023/04/26 00:28:52;;;;;;;6.30;2.27;;;3.50;47.70;;;;;;5031978;28;20588;-53
2023/04/26 00:31:18;;;;;;;8.10;2.47;;;3.50;43.40;;;;;;5037915;28;20457;-52
2023/04/26 00:33:45;;;;;;;4.87;2.33;;;3.50;44.10;;;;;;5035072;28;20493;-52
2023/04/26 00:36:13;;;;;;;5.27;2.27;;;3.50;41.40;;;;;;5035355;28;20531;-53
2023/04/26 00:38:40;;;;;;;9.93;2.90;;;3.40;38.60;;;;;;5037303;28;20490;-53
2023/04/26 00:41:08;;;;;;;7.47;2.30;;;3.40;34.90;;;;;;5046312;28;20461;-53
2023/04/26 00:43:34;;;;;;;8.27;2.77;;;3.30;35.00;;;;;;5045458;28;20524;-57
2023/04/26 00:46:01;;;;;;;4.37;2.03;;;3.30;32.10;;;;;;5051344;28;20537;-53
2023/04/26 00:48:28;;;;;;;6.83;2.00;;;3.30;26.90;;;;;;5033169;28;20532;-53
2023/04/26 00:50:55;;;;;;;7.40;2.33;;;3.20;20.90;;;;;;5031669;28;20492;-53
2023/04/26 00:53:23;;;;;;;3.80;1.90;;;3.30;20.80;;;;;;5028204;28;20568;-53
2023/04/26 00:55:50;;;;;;;8.77;2.80;;;3.30;72.50;;;;;;5034700;28;20461;-53
2023/04/26 00:58:18;;;;;;;7.67;2.83;;;3.30;81.30;;;;;;5033257;28;20497;-53
2023/04/26 01:00:44;;;;;;;13.60;2.47;;;3.20;87.00;;;;;;5030266;28;20838;-53
2023/04/26 01:03:11;;;;;;;12.63;2.73;;;3.20;99.90;;;;;;5039498;28;20489;-52
2023/04/26 01:05:38;;;;;;;11.33;2.30;;;3.20;99.90;;;;;;5035911;28;20814;-52
2023/04/26 01:08:05;;;;;;;10.83;2.90;;;3.20;99.90;;;;;;5042646;28;20476;-53
2023/04/26 01:10:34;;;;;;;9.43;2.50;;;3.20;99.90;;;;;;5040596;28;20531;-53
2023/04/26 01:13:01;;;;;;;8.13;3.37;;;3.20;99.90;;;;;;5036189;28;20500;-52
2023/04/26 01:15:32;;;;;;;7.97;2.40;;;3.10;99.90;;;;;;5034629;28;20982;-54
2023/04/26 01:17:58;;;;;;;6.17;2.33;;;3.00;99.90;;;;;;5027646;28;20488;-53
2023/04/26 01:20:25;;;;;;;8.50;3.00;;;3.00;99.90;;;;;;5033191;28;20464;-52
2023/04/26 01:22:53;;;;;;;11.53;2.60;;;3.00;99.90;;;;;;5025448;28;20465;-52
2023/04/26 01:25:21;;;;;;;9.07;3.03;;;3.00;99.90;;;;;;5027000;28;20497;-53
2023/04/26 01:27:47;;;;;;;7.33;3.23;;;3.00;99.90;;;;;;5031770;28;20564;-53
2023/04/26 01:30:14;;;;;;;6.90;2.70;;;2.90;99.90;;;;;;5032490;28;20501;-52
2023/04/26 01:32:41;;;;;;;4.27;2.20;;;2.90;99.90;;;;;;5030683;28;20884;-52
2023/04/26 01:35:08;;;;;;;5.80;1.80;;;2.90;99.90;;;;;;5029287;28;20484;-54
2023/04/26 01:37:34;;;;;;;7.10;2.20;;;2.90;99.90;;;;;;5023546;28;20485;-55
2023/04/26 01:40:04;;;;;;;10.47;2.40;;;2.90;99.90;;;;;;5028033;28;20490;-53
2023/04/26 01:42:30;;;;;;;14.50;2.90;;;2.90;99.90;;;;;;5030394;28;20519;-52
2023/04/26 01:44:57;;;;;;;9.10;2.63;;;2.90;99.90;;;;;;5030354;28;20485;-53
2023/04/26 01:47:25;;;;;;;13.37;3.30;;;2.90;99.90;;;;;;5029800;28;20496;-53
2023/04/26 01:49:51;;;;;;;11.73;2.67;;;2.90;99.90;;;;;;5026991;28;20505;-52
2023/04/26 01:52:18;;;;;;;5.50;2.37;;;2.80;99.90;;;;;;5024563;28;20493;-53
2023/04/26 01:54:44;;;;;;;6.40;2.33;;;2.80;99.90;;;;;;5026162;28;20936;-53
2023/04/26 01:57:12;;;;;;;5.70;2.07;;;2.70;99.90;;;;;;5022998;28;20494;-53
2023/04/26 01:59:39;;;;;;;9.30;3.07;;;2.80;99.90;;;;;;5030857;28;20509;-52
2023/04/26 02:02:05;;;;;;;8.50;2.43;;;2.70;99.90;;;;;;5027897;28;20501;-52
2023/04/26 02:04:32;;;;;;;4.50;2.00;;;2.70;99.90;;;;;;5027133;28;20498;-53
2023/04/26 02:06:59;;;;;;;9.30;2.30;;;2.70;99.90;;;;;;5024556;28;21127;-52
2023/04/26 02:09:25;;;;;;;7.97;2.10;;;2.70;99.90;;;;;;5037132;28;20560;-52
2023/04/26 02:11:52;;;;;;;8.07;2.00;;;2.70;99.90;;;;;;5033734;28;20533;-53
2023/04/26 02:14:20;;;;;;;11.63;2.70;;;2.70;99.90;;;;;;5033556;28;20503;-53
2023/04/26 02:16:46;;;;;;;9.27;2.70;;;2.70;99.90;;;;;;5034725;28;20509;-53
2023/04/26 02:19:14;;;;;;;7.83;2.40;;;2.70;99.90;;;;;;5032071;28;20521;-53
2023/04/26 02:21:54;;;;;;;9.93;2.43;;;2.60;99.90;;;;;;5035698;28;20462;-52
2023/04/26 02:24:22;;;;;;;8.13;2.70;;;2.60;99.90;;;;;;5033499;28;20542;-52
2023/04/26 02:26:48;;;;;;;8.60;2.77;;;2.60;99.90;;;;;;5040922;28;20456;-52
2023/04/26 02:29:15;;;;;;;7.00;2.70;;;2.60;99.90;;;;;;5027073;28;20515;-52
2023/04/26 02:31:43;;;;;;;6.30;2.17;;;2.50;99.90;;;;;;5032137;28;20485;-52
2023/04/26 02:34:09;;;;;;;5.43;2.00;;;2.50;99.90;;;;;;5038354;28;20462;-52
2023/04/26 02:36:36;;;;;;;11.27;2.50;;;2.50;99.90;;;;;;5036917;28;20493;-53
2023/04/26 02:39:04;;;;;;;9.90;2.70;;;2.50;99.90;;;;;;5030765;28;20529;-53
2023/04/26 02:41:31;;;;;;;15.07;3.00;;;2.50;99.90;;;;;;5034724;28;20456;-52
2023/04/26 02:43:58;;;;;;;7.20;3.10;;;2.50;99.90;;;;;;5033212;28;20480;-52
2023/04/26 02:46:25;;;;;;;9.60;2.77;;;2.50;99.90;;;;;;5033718;28;20502;-53
2023/04/26 02:48:53;;;;;;;9.20;2.87;;;2.50;99.90;;;;;;5043880;22;20517;-52
2023/04/26 02:51:19;;;;;;;9.30;2.63;;;2.40;99.90;;;;;;5075808;28;20981;-52
2023/04/26 02:53:46;;;;;;;5.50;2.30;;;2.40;99.90;;;;;;5076807;28;20454;-53
2023/04/26 02:56:12;;;;;;;14.43;2.80;;;2.40;99.90;;;;;;5073752;28;20506;-54
2023/04/26 02:58:39;;;;;;;9.30;2.70;;;2.40;99.90;;;;;;5078327;28;20471;-53
2023/04/26 03:01:05;;;;;;;15.23;3.33;;;2.40;99.90;;;;;;5079062;28;20506;-53
2023/04/26 03:03:32;;;;;;;5.07;2.40;;;2.40;99.90;;;;;;5070996;28;20501;-53
2023/04/26 03:06:00;;;;;;;16.90;2.60;;;2.40;99.90;;;;;;5074508;28;20553;-54
2023/04/26 03:08:27;;;;;;;7.20;2.37;;;2.40;99.90;;;;;;5070345;28;20516;-53
2023/04/26 03:10:54;;;;;;;7.00;2.43;;;2.40;99.90;;;;;;5071891;28;20478;-53
2023/04/26 03:13:23;;;;;;;7.10;2.10;;;2.30;99.90;;;;;;5074331;28;20952;-53
2023/04/26 03:15:51;;;;;;;10.20;2.90;;;2.30;99.90;;;;;;5075916;28;20573;-53
2023/04/26 03:18:17;;;;;;;8.50;3.17;;;2.30;99.90;;;;;;5073040;28;20459;-52
2023/04/26 03:20:45;;;;;;;8.93;3.00;;;2.30;99.90;;;;;;5075071;28;20510;-52
2023/04/26 03:23:13;;;;;;;15.80;3.93;;;2.30;99.90;;;;;;5076126;28;20963;-52
2023/04/26 03:25:40;;;;;;;7.77;2.23;;;2.30;99.90;;;;;;5068941;28;20504;-53
2023/04/26 03:28:06;;;;;;;9.93;2.40;;;2.30;99.90;;;;;;5071750;28;20471;-52
2023/04/26 03:30:33;;;;;;;8.47;2.70;;;2.20;99.90;;;;;;5071309;28;20499;-52
2023/04/26 03:32:59;;;;;;;9.60;2.83;;;2.20;99.90;;;;;;5074403;28;21003;-53
2023/04/26 03:35:26;;;;;;;11.47;2.97;;;2.20;99.90;;;;;;5072224;28;20533;-53
2023/04/26 03:37:53;;;;;;;12.90;3.87;;;2.20;99.90;;;;;;5070667;28;20526;-52
2023/04/26 03:40:21;;;;;;;17.33;2.47;;;2.20;99.90;;;;;;5070287;28;20515;-52
2023/04/26 03:42:47;;;;;;;9.63;3.20;;;2.20;99.90;;;;;;5079649;28;20458;-52
2023/04/26 03:45:14;;;;;;;6.30;1.90;;;2.10;99.90;;;;;;5071544;28;20487;-53
2023/04/26 03:47:40;;;;;;;7.93;2.90;;;2.20;99.90;;;;;;5068446;28;20509;-52
2023/04/26 03:50:08;;;;;;;11.43;3.50;;;2.10;99.90;;;;;;5069559;28;20476;-53
2023/04/26 03:52:35;;;;;;;7.77;2.90;;;2.10;99.90;;;;;;5071627;28;20488;-52
2023/04/26 03:55:02;;;;;;;9.10;2.87;;;2.10;99.90;;;;;;5071238;28;20483;-52
2023/04/26 03:57:30;;;;;;;9.70;2.53;;;2.10;99.90;;;;;;5067441;28;20461;-52
2023/04/26 03:59:56;;;;;;;9.90;3.10;;;2.10;99.90;;;;;;5067624;28;20511;-52
2023/04/26 04:02:23;;;;;;;8.23;3.00;;;2.00;99.90;;;;;;5068051;28;20464;-52
2023/04/26 04:04:50;;;;;;;5.60;2.80;;;2.00;99.90;;;;;;5069254;28;20476;-53
2023/04/26 04:07:17;;;;;;;8.67;3.00;;;2.10;99.90;;;;;;5070454;28;20471;-54
2023/04/26 04:09:44;;;;;;;8.20;3.10;;;2.10;99.90;;;;;;5067232;28;20482;-53
2023/04/26 04:12:11;;;;;;;8.77;3.00;;;2.10;99.90;;;;;;5066616;28;20517;-53
2023/04/26 04:14:38;;;;;;;6.53;2.80;;;2.10;99.90;;;;;;5069010;28;20487;-54
2023/04/26 04:17:05;;;;;;;8.27;2.57;;;2.20;99.90;;;;;;5068206;28;20969;-53
2023/04/26 04:19:32;;;;;;;10.07;3.33;;;2.20;99.90;;;;;;5071672;28;21042;-53
2023/04/26 04:21:59;;;;;;;8.20;2.50;;;2.20;99.90;;;;;;5068415;28;20488;-54
2023/04/26 04:24:26;;;;;;;9.13;2.77;;;2.30;99.90;;;;;;5067618;28;20451;-53
2023/04/26 04:26:53;;;;;;;9.80;3.20;;;2.40;99.90;;;;;;5072300;28;20459;-53
2023/04/26 04:29:19;;;;;;;8.87;3.10;;;2.40;99.90;;;;;;5067431;28;20981;-52
2023/04/26 04:31:47;;;;;;;8.67;2.43;;;2.50;99.90;;;;;;5067585;28;20460;-52
2023/04/26 04:34:15;;;;;;;8.80;2.90;;;2.50;99.90;;;;;;5065611;28;20456;-52
2023/04/26 04:36:42;;;;;;;5.63;3.13;;;2.70;99.90;;;;;;5067738;28;20466;-53
2023/04/26 04:39:14;;;;;;;6.13;2.50;;;2.70;99.90;;;;;;5068610;28;21014;-54
2023/04/26 04:41:46;;;;;;;7.30;2.40;;;2.70;99.90;;;;;;5071738;28;20545;-53
2023/04/26 04:44:14;;;;;;;10.83;2.83;;;2.70;99.90;;;;;;5069734;28;20459;-53
2023/04/26 04:46:41;;;;;;;7.77;2.87;;;2.70;99.90;;;;;;5063225;28;20526;-53
2023/04/26 04:49:09;;;;;;;8.63;2.97;;;2.80;99.90;;;;;;5070461;28;20571;-52
2023/04/26 04:51:36;;;;;;;11.23;3.23;;;2.80;99.90;;;;;;5073494;28;20464;-53
2023/04/26 04:54:09;;;;;;;8.07;3.73;;;2.90;99.90;;;;;;5077787;28;20464;-53
2023/04/26 04:56:36;;;;;;;10.97;2.87;;;2.80;99.90;;;;;;5066181;28;20538;-53
2023/04/26 04:59:03;;;;;;;9.30;2.47;;;2.90;99.90;;;;;;5068599;28;20640;-52
2023/04/26 05:01:31;;;;;;;7.80;2.50;;;3.00;99.90;;;;;;5065858;28;20466;-54
2023/04/26 05:03:57;;;;;;;5.53;2.60;;;3.10;99.90;;;;;;5064131;28;20463;-53
2023/04/26 05:06:26;;;;;;;12.77;2.83;;;3.10;99.90;;;;;;5069220;28;20482;-53
2023/04/26 05:08:53;;;;;;;8.63;2.90;;;3.20;99.90;;;;;;5067823;28;20507;-53
2023/04/26 05:11:20;;;;;;;9.57;3.13;;;3.30;99.90;;;;;;5068743;28;20515;-53
2023/04/26 05:13:48;;;;;;;20.07;3.97;;;3.30;99.90;;;;;;5071289;28;20459;-52
2023/04/26 05:16:14;;;;;;;7.80;2.60;;;3.40;99.90;;;;;;5069974;28;20485;-53
2023/04/26 05:18:41;;;;;;;9.20;2.90;;;3.40;99.90;;;;;;5070147;28;20460;-53
2023/04/26 05:21:08;;;;;;;11.83;3.07;;;3.40;99.90;;;;;;5070751;28;20491;-53
2023/04/26 05:23:36;;;;;;;10.37;2.93;;;3.50;99.90;;;;;;5064926;28;20514;-53
2023/04/26 05:26:04;;;;;;;10.17;3.43;;;3.50;99.90;;;;;;5068031;28;20464;-53
2023/04/26 05:28:31;;;;;;;10.07;3.37;;;3.60;99.90;;;;;;5064692;28;20464;-53
2023/04/26 05:30:58;;;;;;;7.20;2.93;;;3.60;99.90;;;;;;5069192;28;20495;-53
2023/04/26 05:33:25;;;;;;;12.00;3.50;;;3.70;99.90;;;;;;5069131;28;20502;-54
2023/04/26 05:35:53;;;;;;;9.13;2.80;;;3.80;99.90;;;;;;5068236;28;20555;-53
2023/04/26 05:38:20;;;;;;;8.73;2.53;;;3.80;99.90;;;;;;5071376;28;20456;-54
2023/04/26 05:40:48;;;;;;;13.60;3.67;;;3.90;99.90;;;;;;5066121;28;20880;-53
2023/04/26 05:43:15;;;;;;;7.80;3.37;;;3.90;99.90;;;;;;5067555;28;20468;-56
2023/04/26 05:45:50;;;;;;;15.70;4.07;;;4.00;99.90;;;;;;5058790;28;20637;-52
2023/04/26 05:48:17;;;;;;;9.23;2.67;;;4.20;99.90;;;;;;5066939;28;20529;-53
2023/04/26 05:50:44;;;;;;;8.60;3.00;;;4.20;99.90;;;;;;5063262;28;21035;-54
2023/04/26 05:53:10;;;;;;;12.63;3.30;;;4.30;99.90;;;;;;5070097;28;20566;-53
2023/04/26 05:55:37;;;;;;;14.53;3.90;;;4.30;99.90;;;;;;5069449;28;20461;-54
2023/04/26 05:58:05;;;;;;;8.53;3.23;;;4.40;93.60;;;;;;5062630;28;20486;-53
2023/04/26 06:00:32;;;;;;;9.53;2.90;;;4.50;21.40;;;;;;5062800;28;20488;-53
2023/04/26 06:02:58;;;;;;;11.03;2.70;;;4.60;28.30;;;;;;5057724;28;20466;-54
2023/04/26 06:05:25;;;;;;;6.40;3.17;;;4.70;31.40;;;;;;5063442;28;20899;-53
2023/04/26 06:07:52;;;;;;;14.93;4.10;;;4.80;51.00;;;;;;5069662;28;20492;-54
2023/04/26 06:10:18;;;;;;;10.73;3.27;;;4.80;51.80;;;;;;5068366;28;20508;-53
2023/04/26 06:12:45;;;;;;;4.30;2.40;;;4.80;42.80;;;;;;5069236;28;20958;-52
2023/04/26 06:15:13;;;;;;;10.17;3.50;;;5.00;43.70;;;;;;5061733;28;20465;-54
2023/04/26 06:17:40;;;;;;;13.80;3.43;;;4.90;56.80;;;;;;5067817;28;20498;-53
2023/04/26 06:20:08;;;;;;;10.20;4.03;;;5.20;55.20;;;;;;5055761;28;20491;-53
2023/04/26 06:22:35;;;;;;;9.63;3.40;;;5.10;72.80;;;;;;5066083;28;20875;-53
2023/04/26 06:25:03;;;;;;;15.40;3.20;;;5.30;73.00;;;;;;5067219;28;20463;-52
2023/04/26 06:27:29;;;;;;;30.70;3.40;;;5.50;81.30;;;;;;5061652;28;20467;-52
2023/04/26 06:29:56;;;;;;;10.97;3.40;;;5.60;88.20;;;;;;5058469;28;20520;-51
2023/04/26 06:32:24;;;;;;;14.60;2.90;;;5.50;80.40;;;;;;5069408;28;20857;-53
2023/04/26 06:34:51;;;;;;;7.40;3.23;;;5.60;91.20;;;;;;5061135;28;21034;-54
2023/04/26 06:37:17;;;;;;;9.70;3.93;;;5.70;99.00;;;;;;5062387;28;20472;-54
2023/04/26 06:39:44;;;;;;;11.87;3.37;;;5.70;93.30;;;;;;5067943;28;20514;-53
2023/04/26 06:42:10;;;;;;;9.57;4.30;;;5.70;98.40;;;;;;5068224;28;20523;-54
2023/04/26 06:44:37;;;;;;;10.10;3.13;;;5.90;99.90;;;;;;5067907;28;20858;-54
2023/04/26 06:47:05;;;;;;;8.93;3.30;;;5.90;99.90;;;;;;5062884;28;20944;-53
2023/04/26 06:49:34;;;;;;;24.20;4.80;;;6.00;99.90;;;;;;5054307;28;20524;-53
2023/04/26 06:52:01;;;;;;;15.00;3.40;;;6.00;99.90;;;;;;5060387;28;21179;-52
2023/04/26 06:54:29;;;;;;;8.53;3.20;;;6.20;99.90;;;;;;5070293;28;20955;-52
2023/04/26 06:56:55;;;;;;;12.50;3.10;;;6.30;99.90;;;;;;5069199;28;20495;-52
2023/04/26 06:59:22;;;;;;;8.77;2.87;;;6.50;99.90;;;;;;5066904;28;20488;-53
2023/04/26 07:01:49;;;;;;;9.63;3.33;;;6.70;99.90;;;;;;5069499;28;20484;-53
2023/04/26 07:04:17;;;;;;;11.37;3.53;;;6.90;99.90;;;;;;5063598;28;20531;-53
2023/04/26 07:06:45;;;;;;;13.23;3.17;;;6.90;99.90;;;;;;5066650;28;20453;-53
2023/04/26 07:09:12;;;;;;;9.23;2.80;;;7.20;99.90;;;;;;5055006;28;20525;-54
2023/04/26 07:11:38;;;;;;;8.50;2.80;;;6.80;99.90;;;;;;5055372;28;22260;-53
2023/04/26 07:14:05;;;;;;;12.93;2.77;;;7.10;99.90;;;;;;5065103;28;20494;-53
2023/04/26 07:16:32;;;;;;;9.83;3.10;;;7.60;99.90;;;;;;5067831;28;20503;-54
2023/04/26 07:18:58;;;;;;;12.47;3.13;;;7.50;99.90;;;;;;5071291;28;21014;-53
2023/04/26 07:21:25;;;;;;;12.63;3.23;;;7.80;99.90;;;;;;5068725;28;20534;-53
2023/04/26 07:23:55;;;;;;;13.07;3.30;;;7.60;28.40;;;;;;5070265;28;20479;-52
2023/04/26 07:26:21;;;;;;;9.77;3.00;;;7.40;99.90;;;;;;5072159;28;20945;-53
2023/04/26 07:28:48;;;;;;;13.23;2.40;;;7.30;99.90;;;;;;5067203;28;20487;-53
2023/04/26 07:31:15;;;;;;;17.03;3.30;;;7.40;23.30;;;;;;5066429;28;20452;-53
2023/04/26 07:33:42;;;;;;;10.30;2.53;;;7.70;86.90;;;;;;5067211;28;20543;-53
2023/04/26 07:36:09;;;;;;;10.23;2.93;;;7.50;26.70;;;;;;5069560;28;20460;-53
2023/04/26 07:38:36;;;;;;;6.23;2.30;;;7.50;99.90;;;;;;5072230;28;20853;-54
2023/04/26 07:41:04;;;;;;;9.97;2.80;;;7.70;99.90;;;;;;5069872;28;20515;-53
2023/04/26 07:43:31;;;;;;;8.03;2.60;;;7.90;99.90;;;;;;5066151;28;20558;-53
2023/04/26 07:46:00;;;;;;;9.60;2.40;;;7.80;81.50;;;;;;5069278;28;20488;-53
2023/04/26 07:48:27;;;;;;;9.20;2.50;;;7.70;54.50;;;;;;5064226;28;21080;-54
2023/04/26 07:50:54;;;;;;;9.43;2.40;;;7.80;34.70;;;;;;5066858;28;20524;-53
2023/04/26 07:53:21;;;;;;;6.97;2.63;;;7.90;47.50;;;;;;5069958;28;20467;-52
2023/04/26 07:55:47;;;;;;;7.97;2.77;;;8.40;68.60;;;;;;5066716;28;20464;-53
2023/04/26 07:58:15;;;;;;;7.20;2.27;;;8.30;74.40;;;;;;5063111;28;20496;-53
2023/04/26 08:00:42;;;;;;;8.37;2.40;;;8.70;93.50;;;;;;5068246;28;20522;-53
2023/04/26 08:03:09;;;;;;;10.03;2.83;;;8.70;99.90;;;;;;5072708;28;20956;-53
2023/04/26 08:05:35;;;;;;;10.20;2.07;;;8.90;99.90;;;;;;5063696;28;20967;-53
2023/04/26 08:08:02;;;;;;;11.50;2.80;;;9.00;99.90;;;;;;5065822;28;20452;-52
2023/04/26 08:10:29;;;;;;;8.90;2.83;;;8.60;99.90;;;;;;5070611;28;21004;-52
2023/04/26 08:13:01;;;;;;;6.37;2.27;;;8.50;99.90;;;;;;5071535;28;20456;-54
2023/04/26 08:15:31;;;;;;;15.97;3.40;;;8.10;99.90;;;;;;5070437;28;20462;-52
2023/04/26 08:17:57;;;;;;;9.60;3.47;;;7.80;99.90;;;;;;5069916;28;20465;-52
2023/04/26 08:20:24;;;;;;;8.57;3.17;;;8.20;96.50;;;;;;5070782;28;20520;-53
2023/04/26 08:22:55;;;;;;;8.07;2.70;;;8.10;97.20;;;;;;5066489;28;20987;-53
2023/04/26 08:25:22;;;;;;;12.63;3.30;;;8.00;98.90;;;;;;5065515;28;20559;-52
2023/04/26 08:27:49;;;;;;;14.33;3.30;;;7.90;84.20;;;;;;5069459;28;20483;-53
2023/04/26 08:30:16;;;;;;;8.83;2.67;;;7.80;64.80;;;;;;5067452;28;20987;-54
2023/04/26 08:32:44;;;;;;;13.57;3.03;;;8.00;90.30;;;;;;5066827;28;20981;-53
2023/04/26 08:35:11;;;;;;;13.90;2.77;;;8.00;99.90;;;;;;5066748;28;20466;-53
2023/04/26 08:37:37;;;;;;;7.77;2.10;;;8.00;99.90;;;;;;5065239;28;20491;-54
2023/04/26 08:40:06;;;;;;;8.43;2.90;;;7.90;99.90;;;;;;5064780;28;20492;-53
2023/04/26 08:42:33;;;;;;;11.63;2.73;;;8.20;99.90;;;;;;5067327;28;20459;-53
2023/04/26 08:45:02;;;;;;;6.60;2.80;;;8.20;99.90;;;;;;5061503;28;20550;-53
2023/04/26 08:47:33;;;;;;;9.80;2.57;;;8.10;99.90;;;;;;5063723;28;20456;-53
2023/04/26 08:50:03;;;;;;;9.47;2.70;;;8.20;99.90;;;;;;5066587;28;20484;-50
2023/04/26 08:52:32;;;;;;;6.80;3.07;;;7.90;99.90;;;;;;5068669;28;20827;-50
2023/04/26 08:54:59;;;;;;;6.30;2.30;;;8.00;99.90;;;;;;5069253;28;20504;-51
2023/04/26 08:57:26;;;;;;;6.27;2.27;;;8.20;99.90;;;;;;5067196;28;20464;-51
2023/04/26 08:59:56;;;;;;;5.97;2.53;;;8.70;99.90;;;;;;5060402;28;21110;-51
2023/04/26 09:02:24;;;;;;;5.90;2.40;;;9.00;99.90;;;;;;5063351;28;20467;-50
2023/04/26 09:04:51;;;;;;;8.97;2.43;;;9.90;99.90;;;;;;5069527;28;20905;-50
2023/04/26 09:07:21;;;;;;;5.10;2.00;;;10.70;99.90;;;;;;5064046;28;20533;-50
2023/04/26 09:09:49;;;;;;;4.80;1.93;;;10.10;99.90;;;;;;5062895;28;20844;-50
2023/04/26 09:12:18;;;;;;;5.97;2.40;;;10.00;99.90;;;;;;5069753;28;20462;-50
2023/04/26 09:14:44;;;;;;;5.70;2.40;;;9.10;99.90;;;;;;5069966;28;20477;-50
2023/04/26 09:17:25;;;;;;;6.10;2.17;;;9.00;99.90;;;;;;5064780;28;20487;-50
2023/04/26 09:19:52;;;;;;;4.37;1.80;;;8.60;99.90;;;;;;5068587;28;20519;-50
2023/04/26 09:22:32;;;;;;;7.50;2.37;;;8.60;99.90;;;;;;5065300;28;20518;-50
2023/04/26 09:25:00;;;;;;;7.03;2.20;;;8.30;99.90;;;;;;5070287;28;20489;-49
2023/04/26 09:27:34;;;;;;;12.83;2.43;;;8.40;99.90;;;;;;5069239;28;20469;-50
2023/04/26 09:30:06;;;;;;;7.47;2.60;;;8.70;99.90;;;;;;5063488;28;20484;-50
2023/04/26 09:32:48;;;;;;;10.63;2.40;;;8.60;99.90;;;;;;5064940;28;20575;-50
2023/04/26 09:35:24;;;;;;;5.03;2.23;;;9.90;99.90;;;;;;5062458;28;20503;-50
2023/04/26 09:37:58;;;;;;;7.50;2.23;;;10.90;99.90;;;;;;5068124;28;20503;-50
2023/04/26 09:40:26;;;;;;;7.53;2.40;;;11.10;99.90;;;;;;5068196;28;20488;-50
2023/04/26 09:42:58;;;;;;;10.17;2.40;;;10.50;99.90;;;;;;5071507;28;20449;-50
2023/04/26 09:45:25;;;;;;;4.50;2.20;;;10.10;99.90;;;;;;5063547;28;20491;-51
2023/04/26 09:47:51;;;;;;;5.97;2.10;;;10.20;99.90;;;;;;5064708;28;20476;-50
2023/04/26 09:50:28;;;;;;;9.00;2.87;;;10.40;99.90;;;;;;5060234;28;21028;-49
2023/04/26 09:52:56;;;;;;;6.13;2.10;;;9.90;99.90;;;;;;5065340;28;20493;-50
2023/04/26 09:55:28;;;;;;;13.90;3.27;;;9.80;99.90;;;;;;5059311;28;20521;-51
2023/04/26 09:57:54;;;;;;;6.80;2.33;;;9.30;99.90;;;;;;5061026;28;20467;-50
2023/04/26 10:00:22;;;;;;;6.53;2.90;;;10.10;99.90;;;;;;5059990;28;20534;-50
2023/04/26 10:02:49;;;;;;;6.00;1.77;;;10.90;99.90;;;;;;5071353;28;20486;-50
2023/04/26 10:05:15;;;;;;;6.63;1.90;;;11.20;99.90;;;;;;5060488;28;20874;-51
2023/04/26 10:07:42;;;;;;;6.73;2.43;;;11.30;99.90;;;;;;5065145;28;20492;-51
2023/04/26 10:10:12;;;;;;;4.63;2.07;;;10.50;99.90;;;;;;5066669;28;20511;-50
2023/04/26 10:12:41;;;;;;;8.30;2.13;;;10.20;99.90;;;;;;5064613;28;20502;-50
2023/04/26 10:15:09;;;;;;;6.83;2.20;;;9.90;99.90;;;;;;5065439;28;20459;-51
2023/04/26 10:17:36;;;;;;;6.00;3.03;;;9.50;99.90;;;;;;5061390;28;21332;-50
2023/04/26 10:20:07;;;;;;;8.30;2.50;;;10.40;99.90;;;;;;5064044;28;21021;-50
2023/04/26 10:22:39;;;;;;;8.10;2.70;;;11.20;99.90;;;;;;5063967;28;20488;-50
2023/04/26 10:25:10;;;;;;;6.03;2.27;;;11.30;99.90;;;;;;5064103;28;20508;-51
2023/04/26 10:27:55;;;;;;;11.00;3.10;;;11.50;99.90;;;;;;5065170;28;20459;-50
2023/04/26 10:30:25;;;;;;;3.40;2.40;;;11.30;99.90;;;;;;5064966;28;21018;-50
2023/04/26 10:33:22;;;;;;;9.87;2.50;;;11.00;99.90;;;;;;5068557;28;20551;-50
2023/04/26 10:36:09;;;;;;;2.70;1.90;;;10.10;99.90;;;;;;5063463;28;20457;-50
2023/04/26 10:38:38;;;;;;;4.63;2.10;;;10.10;99.90;;;;;;5068160;28;20460;-51
2023/04/26 10:41:35;;;;;;;5.70;2.10;;;9.80;99.90;;;;;;5064802;28;20511;-50
2023/04/26 10:44:37;;;;;;;4.67;2.50;;;9.90;99.90;;;;;;5060265;28;20794;-51
2023/04/26 10:47:05;;;;;;;6.70;2.00;;;10.20;99.90;;;;;;5062338;28;20982;-51
2023/04/26 10:49:44;;;;;;;7.63;2.03;;;10.30;99.90;;;;;;5065101;28;20498;-50
2023/04/26 10:52:12;;;;;;;7.67;2.40;;;10.80;99.90;;;;;;5065159;28;20485;-50
2023/04/26 10:54:55;;;;;;;5.80;2.50;;;10.70;99.90;;;;;;5069141;28;20460;-50
2023/04/26 10:57:45;;;;;;;6.53;2.13;;;10.50;99.90;;;;;;5067866;28;20513;-50
2023/04/26 11:00:36;;;;;;;5.30;2.57;;;9.70;99.90;;;;;;5065653;28;20480;-51
2023/04/26 11:03:11;;;;;;;6.80;2.97;;;9.70;99.90;;;;;;5067704;28;20460;-51
2023/04/26 11:05:52;;;;;;;16.27;3.03;;;9.20;99.90;;;;;;5071537;28;20456;-50
2023/04/26 11:08:20;;;;;;;9.90;3.50;;;9.40;99.90;;;;;;5071371;28;20455;-50
2023/04/26 11:10:52;;;;;;;9.67;2.30;;;9.30;99.90;;;;;;5069867;28;20487;-50
2023/04/26 11:13:20;;;;;;;11.43;2.40;;;9.50;99.90;;;;;;5066402;28;20585;-50
2023/04/26 11:15:47;;;;;;;8.07;2.90;;;9.20;99.90;;;;;;5068232;28;20463;-51
2023/04/26 11:18:18;;;;;;;10.83;2.80;;;9.20;99.90;;;;;;5071452;28;20957;-50
2023/04/26 11:20:45;;;;;;;9.90;3.60;;;9.30;99.90;;;;;;5072815;28;20510;-50
2023/04/26 11:23:11;;;;;;;6.43;3.00;;;9.20;99.90;;;;;;5074630;28;20445;-50
2023/04/26 11:25:39;;;;;;;7.77;2.73;;;9.20;99.90;;;;;;5073783;28;20495;-51
2023/04/26 11:28:06;;;;;;;5.83;2.70;;;9.30;99.90;;;;;;5073524;28;20471;-51
2023/04/26 11:30:34;;;;;;;5.27;2.57;;;9.60;99.90;;;;;;5065542;28;21649;-50
2023/04/26 11:33:03;;;;;;;10.27;3.17;;;9.80;99.90;;;;;;5069517;28;20548;-51
2023/04/26 11:35:30;;;;;;;11.20;3.27;;;9.80;99.90;;;;;;5073339;28;20466;-51
2023/04/26 11:37:59;;;;;;;10.60;2.80;;;10.30;99.90;;;;;;5074622;28;20798;-51
2023/04/26 11:40:28;;;;;;;9.03;2.87;;;10.60;99.90;;;;;;5069819;28;20479;-50
2023/04/26 11:42:59;;;;;;;6.27;2.97;;;11.20;99.90;;;;;;5071394;28;20484;-51
2023/04/26 11:45:25;;;;;;;9.47;2.87;;;11.50;99.90;;;;;;5067806;28;20468;-50
2023/04/26 11:47:54;;;;;;;16.90;4.10;;;12.30;99.90;;;;;;5072357;28;21009;-51
2023/04/26 11:50:25;;;;;;;12.20;3.53;;;12.20;99.90;;;;;;5064255;28;20527;-49
2023/04/26 11:52:53;;;;;;;6.20;2.93;;;11.90;99.90;;;;;;5073997;28;20440;-51
2023/04/26 11:55:24;;;;;;;6.73;2.80;;;11.20;99.90;;;;;;5073455;28;20493;-50
2023/04/26 11:57:51;;;;;;;7.07;3.53;;;10.50;99.90;;;;;;5072421;28;20474;-50
2023/04/26 12:00:19;;;;;;;14.17;2.60;;;10.00;99.90;;;;;;5070058;28;20459;-50
2023/04/26 12:02:46;;;;;;;6.53;3.10;;;9.30;99.90;;;;;;5071797;28;21023;-51
2023/04/26 12:05:23;;;;;;;9.57;2.70;;;9.40;99.90;;;;;;5073391;28;20493;-51
2023/04/26 12:07:51;;;;;;;6.00;2.43;;;9.80;99.90;;;;;;5073083;28;20471;-50
2023/04/26 12:10:19;;;;;;;7.27;2.40;;;10.00;99.90;;;;;;5073653;28;20497;-50
2023/04/26 12:12:50;;;;;;;4.90;2.70;;;10.00;99.90;;;;;;5065348;28;20445;-58
2023/04/26 12:15:17;;;;;;;6.83;2.43;;;10.40;99.90;;;;;;5070960;28;20471;-57
2023/04/26 12:17:54;;;;;;;4.60;2.37;;;10.90;99.90;;;;;;5068167;28;20514;-57
2023/04/26 12:20:31;;;;;;;4.70;2.50;;;11.40;99.90;;;;;;5068543;28;21034;-58
2023/04/26 12:23:05;;;;;;;8.07;3.10;;;12.40;99.90;;;;;;5068004;28;20479;-58
2023/04/26 12:25:33;;;;;;;6.80;2.20;;;11.70;99.90;;;;;;5066526;28;20510;-59
2023/04/26 12:28:00;;;;;;;6.77;3.40;;;11.40;99.90;;;;;;5070558;28;20491;-58
2023/04/26 12:30:28;;;;;;;9.50;2.53;;;10.90;99.90;;;;;;5073930;28;20480;-58
2023/04/26 12:32:54;;;;;;;9.80;3.60;;;10.50;99.90;;;;;;5069899;28;20512;-57
2023/04/26 12:35:21;;;;;;;3.87;2.50;;;10.10;99.90;;;;;;5070299;28;20544;-58
2023/04/26 12:37:51;;;;;;;5.07;2.63;;;9.30;99.90;;;;;;5074358;28;20485;-59
2023/04/26 12:40:19;;;;;;;8.70;3.60;;;9.10;99.90;;;;;;5074334;28;20479;-59
2023/04/26 12:42:47;;;;;;;8.53;3.30;;;9.00;99.90;;;;;;5068983;28;20479;-59
2023/04/26 12:45:14;;;;;;;11.00;2.77;;;9.20;99.90;;;;;;5067576;28;20998;-58
2023/04/26 12:47:41;;;;;;;5.50;2.53;;;9.30;99.90;;;;;;5070322;28;20478;-59
2023/04/26 12:50:10;;;;;;;5.60;2.30;;;9.50;99.90;;;;;;5069963;28;20535;-58
2023/04/26 12:52:37;;;;;;;2.30;2.10;;;9.70;99.90;;;;;;5077530;28;20546;-59
2023/04/26 12:55:06;;;;;;;9.13;2.90;;;10.10;99.90;;;;;;5074478;28;20495;-59
2023/04/26 12:57:33;;;;;;;9.87;2.70;;;10.40;99.90;;;;;;5073946;28;20494;-59
2023/04/26 12:59:59;;;;;;;6.77;4.00;;;10.90;99.90;;;;;;5076529;28;20473;-59